KTQE

Tekamah Municipal Airport

Tekamah, Nebraska, USA
METAR KTQE 191818Z AUTO 14011KT 10SM SCT020 27/21 A2988 RMK AO2 T02670211
Observed Flight Rules
Sep-19 @ 18:18 UTC (29 minutes ago) Visual Flight Rules
Wind Visibility Clouds
140° at 11 knots 10 miles
  • Scattered at 2,000' AGL
Temperatures Readings
Current 27°C / 81°F
Dewpoint 21°C / 70°F
Humidity 70%
Altimeter 29.88" Hg
Pressure 1012 hPa
Elevation 312
METAR KTQE 191818Z AUTO 14011KT 10SM SCT020 27/21 A2988 RMK AO2 T02670211
Observed Flight Rules
Sep-19 @ 18:18 UTC
(29 minutes ago)
VFR
Wind Visibility
140° at 11 knots 10 miles
Clouds
  • Scattered at 2,000' AGL
Temperature Dewpoint
27°C / 81°F 21°C / 70°F
Humidity Altimeter Pressure
70% 29.88" Hg 1012 hPa